sensor_id;sensor_type;location;lat;lon;timestamp;P1;durP1;ratioP1;P2;durP2;ratioP2
21868;SDS011;11099;41.564;23.296;2023-07-24T00:02:08;11.52;;;7.32;;
21868;SDS011;11099;41.564;23.296;2023-07-24T00:04:34;12.52;;;7.22;;
21868;SDS011;11099;41.564;23.296;2023-07-24T00:06:59;12.57;;;7.40;;
21868;SDS011;11099;41.564;23.296;2023-07-24T00:09:25;10.13;;;6.57;;
21868;SDS011;11099;41.564;23.296;2023-07-24T00:11:51;9.93;;;6.57;;
21868;SDS011;11099;41.564;23.296;2023-07-24T00:14:16;10.13;;;6.25;;
21868;SDS011;11099;41.564;23.296;2023-07-24T00:16:42;8.52;;;6.43;;
21868;SDS011;11099;41.564;23.296;2023-07-24T00:19:07;13.13;;;6.78;;
21868;SDS011;11099;41.564;23.296;2023-07-24T00:21:33;9.95;;;6.22;;
21868;SDS011;11099;41.564;23.296;2023-07-24T00:23:59;9.50;;;6.60;;
21868;SDS011;11099;41.564;23.296;2023-07-24T00:26:24;8.52;;;6.10;;
21868;SDS011;11099;41.564;23.296;2023-07-24T00:28:50;11.68;;;6.78;;
21868;SDS011;11099;41.564;23.296;2023-07-24T00:31:15;9.38;;;6.10;;
21868;SDS011;11099;41.564;23.296;2023-07-24T00:33:41;8.18;;;6.22;;
21868;SDS011;11099;41.564;23.296;2023-07-24T00:36:06;10.10;;;6.97;;
21868;SDS011;11099;41.564;23.296;2023-07-24T00:38:31;12.23;;;7.57;;
21868;SDS011;11099;41.564;23.296;2023-07-24T00:40:57;12.40;;;7.60;;
21868;SDS011;11099;41.564;23.296;2023-07-24T00:43:23;9.73;;;7.10;;
21868;SDS011;11099;41.564;23.296;2023-07-24T00:45:48;13.65;;;7.30;;
21868;SDS011;11099;41.564;23.296;2023-07-24T00:48:14;7.57;;;6.35;;
21868;SDS011;11099;41.564;23.296;2023-07-24T00:50:41;10.02;;;6.93;;
21868;SDS011;11099;41.564;23.296;2023-07-24T00:53:08;8.45;;;6.75;;
21868;SDS011;11099;41.564;23.296;2023-07-24T00:55:35;9.38;;;7.28;;
21868;SDS011;11099;41.564;23.296;2023-07-24T00:58:01;10.27;;;7.30;;
21868;SDS011;11099;41.564;23.296;2023-07-24T01:00:28;11.23;;;6.78;;
21868;SDS011;11099;41.564;23.296;2023-07-24T01:02:54;10.55;;;6.95;;
21868;SDS011;11099;41.564;23.296;2023-07-24T01:05:21;9.35;;;7.05;;
21868;SDS011;11099;41.564;23.296;2023-07-24T01:07:50;12.07;;;7.22;;
21868;SDS011;11099;41.564;23.296;2023-07-24T01:10:16;11.05;;;7.38;;
21868;SDS011;11099;41.564;23.296;2023-07-24T01:12:45;9.55;;;6.32;;
21868;SDS011;11099;41.564;23.296;2023-07-24T01:15:19;8.35;;;6.40;;
21868;SDS011;11099;41.564;23.296;2023-07-24T01:17:56;13.52;;;7.68;;
21868;SDS011;11099;41.564;23.296;2023-07-24T01:20:24;12.45;;;6.47;;
21868;SDS011;11099;41.564;23.296;2023-07-24T01:26:01;9.65;;;6.82;;
21868;SDS011;11099;41.564;23.296;2023-07-24T01:28:29;8.60;;;6.25;;
21868;SDS011;11099;41.564;23.296;2023-07-24T01:30:55;10.55;;;6.15;;
21868;SDS011;11099;41.564;23.296;2023-07-24T01:33:21;9.57;;;6.43;;
21868;SDS011;11099;41.564;23.296;2023-07-24T01:35:51;8.55;;;6.25;;
21868;SDS011;11099;41.564;23.296;2023-07-24T01:38:21;8.75;;;6.53;;
21868;SDS011;11099;41.564;23.296;2023-07-24T01:40:47;8.82;;;6.65;;
21868;SDS011;11099;41.564;23.296;2023-07-24T01:43:14;12.90;;;6.95;;
21868;SDS011;11099;41.564;23.296;2023-07-24T01:45:39;9.75;;;6.60;;
21868;SDS011;11099;41.564;23.296;2023-07-24T01:48:05;9.90;;;7.40;;
21868;SDS011;11099;41.564;23.296;2023-07-24T01:50:31;9.50;;;6.47;;
21868;SDS011;11099;41.564;23.296;2023-07-24T01:52:57;10.05;;;6.55;;
21868;SDS011;11099;41.564;23.296;2023-07-24T01:55:23;9.75;;;6.55;;
21868;SDS011;11099;41.564;23.296;2023-07-24T01:57:48;10.23;;;7.20;;
21868;SDS011;11099;41.564;23.296;2023-07-24T02:00:14;12.52;;;7.18;;
21868;SDS011;11099;41.564;23.296;2023-07-24T02:02:39;8.95;;;6.78;;
21868;SDS011;11099;41.564;23.296;2023-07-24T02:05:05;9.52;;;7.30;;
21868;SDS011;11099;41.564;23.296;2023-07-24T02:07:31;10.77;;;7.32;;
21868;SDS011;11099;41.564;23.296;2023-07-24T02:09:56;7.93;;;6.60;;
21868;SDS011;11099;41.564;23.296;2023-07-24T02:12:22;10.77;;;6.75;;
21868;SDS011;11099;41.564;23.296;2023-07-24T02:14:47;12.93;;;6.95;;
21868;SDS011;11099;41.564;23.296;2023-07-24T02:17:17;9.35;;;7.07;;
21868;SDS011;11099;41.564;23.296;2023-07-24T02:19:43;10.27;;;7.05;;
21868;SDS011;11099;41.564;23.296;2023-07-24T02:22:09;11.68;;;7.50;;
21868;SDS011;11099;41.564;23.296;2023-07-24T02:24:34;10.95;;;7.80;;
21868;SDS011;11099;41.564;23.296;2023-07-24T02:27:00;10.07;;;7.60;;
21868;SDS011;11099;41.564;23.296;2023-07-24T02:29:26;13.48;;;6.63;;
21868;SDS011;11099;41.564;23.296;2023-07-24T02:31:52;11.00;;;7.70;;
21868;SDS011;11099;41.564;23.296;2023-07-24T02:34:18;14.25;;;9.07;;
21868;SDS011;11099;41.564;23.296;2023-07-24T02:36:44;13.05;;;9.18;;
21868;SDS011;11099;41.564;23.296;2023-07-24T02:39:09;13.88;;;8.70;;
21868;SDS011;11099;41.564;23.296;2023-07-24T02:41:35;14.85;;;9.15;;
21868;SDS011;11099;41.564;23.296;2023-07-24T02:44:01;15.02;;;9.80;;
21868;SDS011;11099;41.564;23.296;2023-07-24T02:46:28;13.00;;;8.73;;
21868;SDS011;11099;41.564;23.296;2023-07-24T02:48:55;15.38;;;10.55;;
21868;SDS011;11099;41.564;23.296;2023-07-24T02:51:21;14.35;;;8.98;;
21868;SDS011;11099;41.564;23.296;2023-07-24T02:53:46;11.40;;;8.85;;
21868;SDS011;11099;41.564;23.296;2023-07-24T02:56:12;17.27;;;8.57;;
21868;SDS011;11099;41.564;23.296;2023-07-24T02:58:37;12.90;;;9.23;;
21868;SDS011;11099;41.564;23.296;2023-07-24T03:01:06;13.82;;;8.50;;
21868;SDS011;11099;41.564;23.296;2023-07-24T03:03:33;11.98;;;8.00;;
21868;SDS011;11099;41.564;23.296;2023-07-24T03:05:58;13.25;;;8.63;;
21868;SDS011;11099;41.564;23.296;2023-07-24T03:08:24;12.63;;;7.93;;
21868;SDS011;11099;41.564;23.296;2023-07-24T03:10:50;12.40;;;8.15;;
21868;SDS011;11099;41.564;23.296;2023-07-24T03:13:15;11.07;;;7.70;;
21868;SDS011;11099;41.564;23.296;2023-07-24T03:15:41;16.33;;;8.63;;
21868;SDS011;11099;41.564;23.296;2023-07-24T03:18:06;20.38;;;9.70;;
21868;SDS011;11099;41.564;23.296;2023-07-24T03:20:32;17.10;;;8.50;;
21868;SDS011;11099;41.564;23.296;2023-07-24T03:22:57;13.20;;;9.32;;
21868;SDS011;11099;41.564;23.296;2023-07-24T03:25:23;13.80;;;9.07;;
21868;SDS011;11099;41.564;23.296;2023-07-24T03:27:48;12.25;;;8.73;;
21868;SDS011;11099;41.564;23.296;2023-07-24T03:30:14;13.82;;;8.85;;
21868;SDS011;11099;41.564;23.296;2023-07-24T03:32:39;17.05;;;9.00;;
21868;SDS011;11099;41.564;23.296;2023-07-24T03:35:05;14.15;;;9.35;;
21868;SDS011;11099;41.564;23.296;2023-07-24T03:37:31;15.50;;;8.70;;
21868;SDS011;11099;41.564;23.296;2023-07-24T03:39:58;15.50;;;8.68;;
21868;SDS011;11099;41.564;23.296;2023-07-24T03:42:24;14.88;;;8.75;;
21868;SDS011;11099;41.564;23.296;2023-07-24T03:44:54;12.00;;;8.60;;
21868;SDS011;11099;41.564;23.296;2023-07-24T03:47:20;14.27;;;9.13;;
21868;SDS011;11099;41.564;23.296;2023-07-24T03:49:45;17.52;;;8.98;;
21868;SDS011;11099;41.564;23.296;2023-07-24T03:52:11;12.45;;;9.63;;
21868;SDS011;11099;41.564;23.296;2023-07-24T03:54:36;17.63;;;9.25;;
21868;SDS011;11099;41.564;23.296;2023-07-24T03:57:02;13.65;;;8.90;;
21868;SDS011;11099;41.564;23.296;2023-07-24T03:59:28;16.98;;;10.05;;
21868;SDS011;11099;41.564;23.296;2023-07-24T04:01:53;16.35;;;10.35;;
21868;SDS011;11099;41.564;23.296;2023-07-24T04:04:19;14.65;;;8.40;;
21868;SDS011;11099;41.564;23.296;2023-07-24T04:06:45;13.15;;;8.77;;
21868;SDS011;11099;41.564;23.296;2023-07-24T04:09:12;13.90;;;9.40;;
21868;SDS011;11099;41.564;23.296;2023-07-24T04:11:40;14.15;;;9.18;;
21868;SDS011;11099;41.564;23.296;2023-07-24T04:14:05;11.25;;;8.52;;
21868;SDS011;11099;41.564;23.296;2023-07-24T04:16:31;18.38;;;11.23;;
21868;SDS011;11099;41.564;23.296;2023-07-24T04:18:57;18.70;;;10.38;;
21868;SDS011;11099;41.564;23.296;2023-07-24T04:21:22;14.43;;;9.23;;
21868;SDS011;11099;41.564;23.296;2023-07-24T04:23:48;10.90;;;9.07;;
21868;SDS011;11099;41.564;23.296;2023-07-24T04:26:14;13.38;;;8.07;;
21868;SDS011;11099;41.564;23.296;2023-07-24T04:28:39;15.00;;;7.78;;
21868;SDS011;11099;41.564;23.296;2023-07-24T04:31:04;13.05;;;8.48;;
21868;SDS011;11099;41.564;23.296;2023-07-24T04:33:30;13.88;;;8.18;;
21868;SDS011;11099;41.564;23.296;2023-07-24T04:35:55;10.80;;;8.45;;
21868;SDS011;11099;41.564;23.296;2023-07-24T04:38:21;12.27;;;8.50;;
21868;SDS011;11099;41.564;23.296;2023-07-24T04:40:47;12.77;;;8.52;;
21868;SDS011;11099;41.564;23.296;2023-07-24T04:43:12;18.88;;;8.75;;
21868;SDS011;11099;41.564;23.296;2023-07-24T04:45:38;16.38;;;8.85;;
21868;SDS011;11099;41.564;23.296;2023-07-24T04:48:04;15.50;;;7.65;;
21868;SDS011;11099;41.564;23.296;2023-07-24T04:50:30;10.45;;;7.93;;
21868;SDS011;11099;41.564;23.296;2023-07-24T04:52:55;19.08;;;9.13;;
21868;SDS011;11099;41.564;23.296;2023-07-24T04:55:21;13.15;;;9.15;;
21868;SDS011;11099;41.564;23.296;2023-07-24T04:57:47;12.25;;;8.10;;
21868;SDS011;11099;41.564;23.296;2023-07-24T05:00:13;16.20;;;9.43;;
21868;SDS011;11099;41.564;23.296;2023-07-24T05:02:39;11.65;;;8.40;;
21868;SDS011;11099;41.564;23.296;2023-07-24T05:05:05;10.60;;;7.78;;
21868;SDS011;11099;41.564;23.296;2023-07-24T05:07:31;13.00;;;9.10;;
21868;SDS011;11099;41.564;23.296;2023-07-24T05:09:57;15.75;;;8.60;;
21868;SDS011;11099;41.564;23.296;2023-07-24T05:12:22;11.13;;;7.85;;
21868;SDS011;11099;41.564;23.296;2023-07-24T05:14:48;9.98;;;7.95;;
21868;SDS011;11099;41.564;23.296;2023-07-24T05:17:13;10.80;;;8.10;;
21868;SDS011;11099;41.564;23.296;2023-07-24T05:19:39;12.55;;;8.40;;
21868;SDS011;11099;41.564;23.296;2023-07-24T05:22:04;14.30;;;8.35;;
21868;SDS011;11099;41.564;23.296;2023-07-24T05:24:31;14.30;;;9.27;;
21868;SDS011;11099;41.564;23.296;2023-07-24T05:26:56;9.27;;;7.97;;
21868;SDS011;11099;41.564;23.296;2023-07-24T05:29:22;11.77;;;9.13;;
21868;SDS011;11099;41.564;23.296;2023-07-24T05:31:47;12.07;;;9.23;;
21868;SDS011;11099;41.564;23.296;2023-07-24T05:34:13;12.70;;;8.55;;
21868;SDS011;11099;41.564;23.296;2023-07-24T05:36:40;11.88;;;8.32;;
21868;SDS011;11099;41.564;23.296;2023-07-24T05:39:05;12.25;;;8.45;;
21868;SDS011;11099;41.564;23.296;2023-07-24T05:41:31;12.18;;;9.07;;
21868;SDS011;11099;41.564;23.296;2023-07-24T05:43:56;12.02;;;8.98;;
21868;SDS011;11099;41.564;23.296;2023-07-24T05:46:22;12.82;;;9.45;;
21868;SDS011;11099;41.564;23.296;2023-07-24T05:48:47;13.13;;;8.65;;
21868;SDS011;11099;41.564;23.296;2023-07-24T05:51:13;20.10;;;10.10;;
21868;SDS011;11099;41.564;23.296;2023-07-24T05:53:38;14.73;;;9.65;;
21868;SDS011;11099;41.564;23.296;2023-07-24T05:56:04;12.93;;;9.30;;
21868;SDS011;11099;41.564;23.296;2023-07-24T05:58:29;11.85;;;8.88;;
21868;SDS011;11099;41.564;23.296;2023-07-24T06:00:55;13.18;;;9.10;;
21868;SDS011;11099;41.564;23.296;2023-07-24T06:03:24;15.95;;;9.23;;
21868;SDS011;11099;41.564;23.296;2023-07-24T06:05:53;13.90;;;10.45;;
21868;SDS011;11099;41.564;23.296;2023-07-24T06:08:20;14.40;;;9.48;;
21868;SDS011;11099;41.564;23.296;2023-07-24T06:10:49;14.98;;;10.10;;
21868;SDS011;11099;41.564;23.296;2023-07-24T06:13:16;13.85;;;9.52;;
21868;SDS011;11099;41.564;23.296;2023-07-24T06:15:42;18.35;;;10.82;;
21868;SDS011;11099;41.564;23.296;2023-07-24T06:18:08;16.17;;;11.00;;
21868;SDS011;11099;41.564;23.296;2023-07-24T06:20:34;15.77;;;10.98;;
21868;SDS011;11099;41.564;23.296;2023-07-24T06:23:00;18.90;;;11.27;;
21868;SDS011;11099;41.564;23.296;2023-07-24T06:25:25;17.55;;;11.05;;
21868;SDS011;11099;41.564;23.296;2023-07-24T06:27:51;15.27;;;11.27;;
21868;SDS011;11099;41.564;23.296;2023-07-24T06:30:16;19.27;;;11.27;;
21868;SDS011;11099;41.564;23.296;2023-07-24T06:32:42;18.17;;;11.40;;
21868;SDS011;11099;41.564;23.296;2023-07-24T06:35:08;16.63;;;11.35;;
21868;SDS011;11099;41.564;23.296;2023-07-24T06:37:34;16.30;;;10.75;;
21868;SDS011;11099;41.564;23.296;2023-07-24T06:40:00;15.70;;;10.82;;
21868;SDS011;11099;41.564;23.296;2023-07-24T06:42:25;13.50;;;10.50;;
21868;SDS011;11099;41.564;23.296;2023-07-24T06:44:51;17.45;;;12.30;;
21868;SDS011;11099;41.564;23.296;2023-07-24T06:47:16;14.60;;;10.32;;
21868;SDS011;11099;41.564;23.296;2023-07-24T06:49:41;17.08;;;10.82;;
21868;SDS011;11099;41.564;23.296;2023-07-24T06:52:07;14.98;;;10.45;;
21868;SDS011;11099;41.564;23.296;2023-07-24T06:54:32;18.23;;;10.55;;
21868;SDS011;11099;41.564;23.296;2023-07-24T06:56:58;14.93;;;10.90;;
21868;SDS011;11099;41.564;23.296;2023-07-24T06:59:23;17.27;;;10.60;;
21868;SDS011;11099;41.564;23.296;2023-07-24T07:01:49;15.25;;;10.60;;
21868;SDS011;11099;41.564;23.296;2023-07-24T07:04:14;14.38;;;10.52;;
21868;SDS011;11099;41.564;23.296;2023-07-24T07:06:41;16.05;;;10.60;;
21868;SDS011;11099;41.564;23.296;2023-07-24T07:09:06;23.55;;;10.63;;
21868;SDS011;11099;41.564;23.296;2023-07-24T07:11:32;12.18;;;9.95;;
21868;SDS011;11099;41.564;23.296;2023-07-24T07:13:57;13.70;;;10.65;;
21868;SDS011;11099;41.564;23.296;2023-07-24T07:16:23;13.70;;;10.27;;
21868;SDS011;11099;41.564;23.296;2023-07-24T07:18:48;15.40;;;11.13;;
21868;SDS011;11099;41.564;23.296;2023-07-24T07:21:14;17.40;;;10.85;;
21868;SDS011;11099;41.564;23.296;2023-07-24T07:23:39;16.63;;;11.25;;
21868;SDS011;11099;41.564;23.296;2023-07-24T07:26:05;19.75;;;11.45;;
21868;SDS011;11099;41.564;23.296;2023-07-24T07:28:30;13.02;;;10.00;;
21868;SDS011;11099;41.564;23.296;2023-07-24T07:30:56;16.52;;;10.77;;
21868;SDS011;11099;41.564;23.296;2023-07-24T07:33:21;16.38;;;10.32;;
21868;SDS011;11099;41.564;23.296;2023-07-24T07:35:47;13.38;;;10.60;;
21868;SDS011;11099;41.564;23.296;2023-07-24T07:38:13;12.63;;;10.68;;
21868;SDS011;11099;41.564;23.296;2023-07-24T07:40:38;14.13;;;11.23;;
21868;SDS011;11099;41.564;23.296;2023-07-24T07:45:32;13.35;;;10.68;;
21868;SDS011;11099;41.564;23.296;2023-07-24T07:47:58;15.10;;;11.25;;
21868;SDS011;11099;41.564;23.296;2023-07-24T07:50:23;15.70;;;10.88;;
21868;SDS011;11099;41.564;23.296;2023-07-24T07:52:49;15.32;;;10.57;;
21868;SDS011;11099;41.564;23.296;2023-07-24T07:55:18;16.02;;;10.40;;
21868;SDS011;11099;41.564;23.296;2023-07-24T07:57:44;15.95;;;10.93;;
21868;SDS011;11099;41.564;23.296;2023-07-24T08:00:09;13.23;;;10.73;;
21868;SDS011;11099;41.564;23.296;2023-07-24T08:02:35;14.93;;;10.65;;
21868;SDS011;11099;41.564;23.296;2023-07-24T08:05:05;13.80;;;11.02;;
21868;SDS011;11099;41.564;23.296;2023-07-24T08:07:32;16.50;;;10.33;;
21868;SDS011;11099;41.564;23.296;2023-07-24T08:09:57;11.52;;;9.75;;
21868;SDS011;11099;41.564;23.296;2023-07-24T08:12:23;14.07;;;9.02;;
21868;SDS011;11099;41.564;23.296;2023-07-24T08:14:48;13.48;;;10.02;;
21868;SDS011;11099;41.564;23.296;2023-07-24T08:17:14;14.82;;;9.57;;
21868;SDS011;11099;41.564;23.296;2023-07-24T08:19:39;11.73;;;8.77;;
21868;SDS011;11099;41.564;23.296;2023-07-24T08:22:05;11.23;;;8.85;;
21868;SDS011;11099;41.564;23.296;2023-07-24T08:24:33;11.25;;;9.02;;
21868;SDS011;11099;41.564;23.296;2023-07-24T08:26:59;11.27;;;8.95;;
21868;SDS011;11099;41.564;23.296;2023-07-24T08:29:24;12.07;;;8.43;;
21868;SDS011;11099;41.564;23.296;2023-07-24T08:31:50;13.52;;;8.90;;
21868;SDS011;11099;41.564;23.296;2023-07-24T08:34:15;14.25;;;8.95;;
21868;SDS011;11099;41.564;23.296;2023-07-24T08:36:41;12.82;;;8.13;;
21868;SDS011;11099;41.564;23.296;2023-07-24T08:39:06;11.02;;;8.25;;
21868;SDS011;11099;41.564;23.296;2023-07-24T08:41:31;12.10;;;8.77;;
21868;SDS011;11099;41.564;23.296;2023-07-24T08:43:59;17.57;;;10.60;;
21868;SDS011;11099;41.564;23.296;2023-07-24T08:46:25;12.48;;;9.27;;
21868;SDS011;11099;41.564;23.296;2023-07-24T08:48:52;13.68;;;9.40;;
21868;SDS011;11099;41.564;23.296;2023-07-24T08:51:19;12.95;;;9.95;;
21868;SDS011;11099;41.564;23.296;2023-07-24T08:53:47;12.23;;;8.57;;
21868;SDS011;11099;41.564;23.296;2023-07-24T08:56:13;15.25;;;9.13;;
21868;SDS011;11099;41.564;23.296;2023-07-24T08:58:39;10.80;;;9.50;;
21868;SDS011;11099;41.564;23.296;2023-07-24T09:01:05;14.13;;;9.73;;
21868;SDS011;11099;41.564;23.296;2023-07-24T09:03:32;12.27;;;9.70;;
21868;SDS011;11099;41.564;23.296;2023-07-24T09:05:58;14.35;;;9.15;;
21868;SDS011;11099;41.564;23.296;2023-07-24T09:08:34;13.20;;;9.13;;
21868;SDS011;11099;41.564;23.296;2023-07-24T09:11:02;13.07;;;9.07;;
21868;SDS011;11099;41.564;23.296;2023-07-24T09:13:28;12.60;;;8.70;;
21868;SDS011;11099;41.564;23.296;2023-07-24T09:15:54;10.82;;;7.90;;
21868;SDS011;11099;41.564;23.296;2023-07-24T09:18:20;10.18;;;8.48;;
21868;SDS011;11099;41.564;23.296;2023-07-24T09:20:46;12.95;;;7.95;;
21868;SDS011;11099;41.564;23.296;2023-07-24T09:23:12;9.85;;;8.20;;
21868;SDS011;11099;41.564;23.296;2023-07-24T09:25:39;9.38;;;7.38;;
21868;SDS011;11099;41.564;23.296;2023-07-24T09:28:14;9.00;;;7.82;;
21868;SDS011;11099;41.564;23.296;2023-07-24T09:30:41;13.05;;;8.15;;
21868;SDS011;11099;41.564;23.296;2023-07-24T09:33:16;11.45;;;8.13;;
21868;SDS011;11099;41.564;23.296;2023-07-24T09:35:41;10.85;;;8.27;;
21868;SDS011;11099;41.564;23.296;2023-07-24T09:38:07;10.52;;;8.13;;
21868;SDS011;11099;41.564;23.296;2023-07-24T09:40:42;13.50;;;8.55;;
21868;SDS011;11099;41.564;23.296;2023-07-24T09:45:48;9.15;;;8.05;;
21868;SDS011;11099;41.564;23.296;2023-07-24T09:48:14;10.45;;;8.30;;
21868;SDS011;11099;41.564;23.296;2023-07-24T09:50:42;17.83;;;9.00;;
21868;SDS011;11099;41.564;23.296;2023-07-24T09:53:13;9.68;;;8.18;;
21868;SDS011;11099;41.564;23.296;2023-07-24T09:55:52;14.32;;;8.95;;
21868;SDS011;11099;41.564;23.296;2023-07-24T09:58:20;12.30;;;9.15;;
21868;SDS011;11099;41.564;23.296;2023-07-24T10:00:47;10.25;;;8.52;;
21868;SDS011;11099;41.564;23.296;2023-07-24T10:03:14;10.60;;;8.68;;
21868;SDS011;11099;41.564;23.296;2023-07-24T10:05:41;12.50;;;8.82;;
21868;SDS011;11099;41.564;23.296;2023-07-24T10:08:10;12.50;;;9.52;;
21868;SDS011;11099;41.564;23.296;2023-07-24T10:10:36;15.85;;;9.68;;
21868;SDS011;11099;41.564;23.296;2023-07-24T10:13:03;11.50;;;9.40;;
21868;SDS011;11099;41.564;23.296;2023-07-24T10:15:29;12.70;;;9.02;;
21868;SDS011;11099;41.564;23.296;2023-07-24T10:18:03;12.45;;;9.48;;
21868;SDS011;11099;41.564;23.296;2023-07-24T10:20:40;14.23;;;9.45;;
21868;SDS011;11099;41.564;23.296;2023-07-24T10:23:08;16.75;;;9.90;;
21868;SDS011;11099;41.564;23.296;2023-07-24T10:25:38;13.25;;;9.07;;
21868;SDS011;11099;41.564;23.296;2023-07-24T10:28:09;14.73;;;10.63;;
21868;SDS011;11099;41.564;23.296;2023-07-24T10:30:41;16.17;;;9.98;;
21868;SDS011;11099;41.564;23.296;2023-07-24T10:33:08;13.18;;;9.85;;
21868;SDS011;11099;41.564;23.296;2023-07-24T10:35:39;13.00;;;9.60;;
21868;SDS011;11099;41.564;23.296;2023-07-24T10:38:16;14.80;;;9.70;;
21868;SDS011;11099;41.564;23.296;2023-07-24T10:40:42;11.95;;;9.57;;
21868;SDS011;11099;41.564;23.296;2023-07-24T10:43:10;15.55;;;10.68;;
21868;SDS011;11099;41.564;23.296;2023-07-24T10:45:41;14.55;;;10.50;;
21868;SDS011;11099;41.564;23.296;2023-07-24T10:48:19;13.00;;;10.10;;
21868;SDS011;11099;41.564;23.296;2023-07-24T10:50:46;12.00;;;10.35;;
21868;SDS011;11099;41.564;23.296;2023-07-24T10:53:14;13.18;;;10.13;;
21868;SDS011;11099;41.564;23.296;2023-07-24T10:55:41;13.27;;;10.15;;
21868;SDS011;11099;41.564;23.296;2023-07-24T10:58:08;13.52;;;9.68;;
21868;SDS011;11099;41.564;23.296;2023-07-24T11:00:34;13.05;;;10.23;;
21868;SDS011;11099;41.564;23.296;2023-07-24T11:03:00;11.90;;;10.05;;
21868;SDS011;11099;41.564;23.296;2023-07-24T11:05:26;12.90;;;9.75;;
21868;SDS011;11099;41.564;23.296;2023-07-24T11:07:52;12.65;;;10.65;;
21868;SDS011;11099;41.564;23.296;2023-07-24T11:10:20;15.63;;;10.00;;
21868;SDS011;11099;41.564;23.296;2023-07-24T11:15:14;15.10;;;10.13;;
21868;SDS011;11099;41.564;23.296;2023-07-24T11:17:40;15.68;;;10.45;;
21868;SDS011;11099;41.564;23.296;2023-07-24T11:20:11;15.33;;;10.10;;
21868;SDS011;11099;41.564;23.296;2023-07-24T11:22:42;14.30;;;10.55;;
21868;SDS011;11099;41.564;23.296;2023-07-24T11:25:09;11.70;;;9.65;;
21868;SDS011;11099;41.564;23.296;2023-07-24T11:27:40;17.02;;;10.65;;
21868;SDS011;11099;41.564;23.296;2023-07-24T11:30:07;19.20;;;10.90;;
21868;SDS011;11099;41.564;23.296;2023-07-24T11:32:34;12.60;;;10.20;;
21868;SDS011;11099;41.564;23.296;2023-07-24T11:34:59;12.40;;;9.93;;
21868;SDS011;11099;41.564;23.296;2023-07-24T11:37:26;12.13;;;9.48;;
21868;SDS011;11099;41.564;23.296;2023-07-24T11:39:58;9.73;;;8.70;;
21868;SDS011;11099;41.564;23.296;2023-07-24T11:42:29;11.68;;;9.77;;
21868;SDS011;11099;41.564;23.296;2023-07-24T11:44:55;12.07;;;9.48;;
21868;SDS011;11099;41.564;23.296;2023-07-24T11:47:25;12.30;;;9.40;;
21868;SDS011;11099;41.564;23.296;2023-07-24T11:49:58;11.75;;;9.15;;
21868;SDS011;11099;41.564;23.296;2023-07-24T11:52:37;14.05;;;9.52;;
21868;SDS011;11099;41.564;23.296;2023-07-24T11:55:04;10.18;;;8.68;;
21868;SDS011;11099;41.564;23.296;2023-07-24T11:57:30;12.65;;;9.02;;
21868;SDS011;11099;41.564;23.296;2023-07-24T11:59:56;11.63;;;8.77;;
21868;SDS011;11099;41.564;23.296;2023-07-24T12:04:53;10.32;;;7.90;;
21868;SDS011;11099;41.564;23.296;2023-07-24T12:07:21;11.40;;;8.23;;
21868;SDS011;11099;41.564;23.296;2023-07-24T12:09:51;10.30;;;9.18;;
21868;SDS011;11099;41.564;23.296;2023-07-24T12:12:17;12.43;;;8.60;;
21868;SDS011;11099;41.564;23.296;2023-07-24T12:14:43;11.23;;;7.78;;
21868;SDS011;11099;41.564;23.296;2023-07-24T12:17:09;10.18;;;8.07;;
21868;SDS011;11099;41.564;23.296;2023-07-24T12:19:37;16.58;;;8.00;;
21868;SDS011;11099;41.564;23.296;2023-07-24T12:22:03;10.95;;;8.75;;
21868;SDS011;11099;41.564;23.296;2023-07-24T12:24:29;12.60;;;8.05;;
21868;SDS011;11099;41.564;23.296;2023-07-24T12:26:54;11.25;;;8.50;;
21868;SDS011;11099;41.564;23.296;2023-07-24T12:29:20;11.90;;;8.55;;
21868;SDS011;11099;41.564;23.296;2023-07-24T12:31:45;14.43;;;8.75;;
21868;SDS011;11099;41.564;23.296;2023-07-24T12:34:11;10.90;;;8.35;;
21868;SDS011;11099;41.564;23.296;2023-07-24T12:36:36;12.60;;;7.75;;
21868;SDS011;11099;41.564;23.296;2023-07-24T12:39:02;10.40;;;8.13;;
21868;SDS011;11099;41.564;23.296;2023-07-24T12:41:27;12.07;;;8.10;;
21868;SDS011;11099;41.564;23.296;2023-07-24T12:43:53;13.75;;;7.90;;
21868;SDS011;11099;41.564;23.296;2023-07-24T12:46:18;10.85;;;7.85;;
21868;SDS011;11099;41.564;23.296;2023-07-24T12:48:44;9.20;;;7.70;;
21868;SDS011;11099;41.564;23.296;2023-07-24T12:51:10;10.02;;;7.55;;
21868;SDS011;11099;41.564;23.296;2023-07-24T12:53:35;12.73;;;8.70;;
21868;SDS011;11099;41.564;23.296;2023-07-24T12:56:01;11.40;;;6.90;;
21868;SDS011;11099;41.564;23.296;2023-07-24T12:58:26;13.18;;;7.25;;
21868;SDS011;11099;41.564;23.296;2023-07-24T13:00:52;11.35;;;7.70;;
21868;SDS011;11099;41.564;23.296;2023-07-24T13:03:17;11.75;;;8.57;;
21868;SDS011;11099;41.564;23.296;2023-07-24T13:05:43;9.93;;;7.72;;
21868;SDS011;11099;41.564;23.296;2023-07-24T13:08:09;10.15;;;7.22;;
21868;SDS011;11099;41.564;23.296;2023-07-24T13:10:34;9.18;;;6.72;;
21868;SDS011;11099;41.564;23.296;2023-07-24T13:13:00;11.00;;;7.15;;
21868;SDS011;11099;41.564;23.296;2023-07-24T13:15:26;6.95;;;6.25;;
21868;SDS011;11099;41.564;23.296;2023-07-24T13:17:51;12.95;;;8.15;;
21868;SDS011;11099;41.564;23.296;2023-07-24T13:20:17;10.50;;;6.70;;
21868;SDS011;11099;41.564;23.296;2023-07-24T13:22:42;9.70;;;6.80;;
21868;SDS011;11099;41.564;23.296;2023-07-24T13:25:11;10.98;;;6.68;;
21868;SDS011;11099;41.564;23.296;2023-07-24T13:27:36;8.80;;;6.28;;
21868;SDS011;11099;41.564;23.296;2023-07-24T13:30:02;10.27;;;6.13;;
21868;SDS011;11099;41.564;23.296;2023-07-24T13:32:28;9.00;;;5.93;;
21868;SDS011;11099;41.564;23.296;2023-07-24T13:34:55;14.68;;;5.57;;
21868;SDS011;11099;41.564;23.296;2023-07-24T13:37:21;11.07;;;5.38;;
21868;SDS011;11099;41.564;23.296;2023-07-24T13:39:49;12.75;;;5.93;;
21868;SDS011;11099;41.564;23.296;2023-07-24T13:42:15;12.05;;;5.72;;
21868;SDS011;11099;41.564;23.296;2023-07-24T13:44:41;9.10;;;6.03;;
21868;SDS011;11099;41.564;23.296;2023-07-24T13:47:06;13.63;;;6.32;;
21868;SDS011;11099;41.564;23.296;2023-07-24T13:49:32;14.57;;;5.82;;
21868;SDS011;11099;41.564;23.296;2023-07-24T13:51:57;7.93;;;5.70;;
21868;SDS011;11099;41.564;23.296;2023-07-24T13:54:23;13.70;;;6.43;;
21868;SDS011;11099;41.564;23.296;2023-07-24T13:56:48;10.48;;;6.18;;
21868;SDS011;11099;41.564;23.296;2023-07-24T13:59:14;9.52;;;6.55;;
21868;SDS011;11099;41.564;23.296;2023-07-24T14:01:39;8.75;;;6.20;;
21868;SDS011;11099;41.564;23.296;2023-07-24T14:04:05;14.52;;;6.43;;
21868;SDS011;11099;41.564;23.296;2023-07-24T14:06:30;12.50;;;6.63;;
21868;SDS011;11099;41.564;23.296;2023-07-24T14:08:56;12.30;;;7.43;;
21868;SDS011;11099;41.564;23.296;2023-07-24T14:11:21;12.38;;;6.72;;
21868;SDS011;11099;41.564;23.296;2023-07-24T14:13:47;9.32;;;6.25;;
21868;SDS011;11099;41.564;23.296;2023-07-24T14:16:12;9.30;;;5.85;;
21868;SDS011;11099;41.564;23.296;2023-07-24T14:18:38;10.38;;;6.55;;
21868;SDS011;11099;41.564;23.296;2023-07-24T14:21:03;13.73;;;6.70;;
21868;SDS011;11099;41.564;23.296;2023-07-24T14:23:28;10.82;;;6.63;;
21868;SDS011;11099;41.564;23.296;2023-07-24T14:25:54;8.90;;;6.13;;
21868;SDS011;11099;41.564;23.296;2023-07-24T14:28:19;9.48;;;6.65;;
21868;SDS011;11099;41.564;23.296;2023-07-24T14:30:45;10.00;;;6.70;;